sensor_id;sensor_type;location;lat;lon;timestamp;P1;durP1;ratioP1;P2;durP2;ratioP2
51146;SDS011;37207;53.060;18.726;2022-10-31T00:01:52;123.50;;;37.50;;
51146;SDS011;37207;53.060;18.726;2022-10-31T00:04:19;141.50;;;38.30;;
51146;SDS011;37207;53.060;18.726;2022-10-31T00:06:46;146.70;;;37.70;;
51146;SDS011;37207;53.060;18.726;2022-10-31T00:09:13;169.40;;;37.40;;
51146;SDS011;37207;53.060;18.726;2022-10-31T00:11:39;194.40;;;37.70;;
51146;SDS011;37207;53.060;18.726;2022-10-31T00:14:06;192.20;;;38.40;;
51146;SDS011;37207;53.060;18.726;2022-10-31T00:16:33;185.50;;;38.80;;
51146;SDS011;37207;53.060;18.726;2022-10-31T00:19:00;225.20;;;40.10;;
51146;SDS011;37207;53.060;18.726;2022-10-31T00:21:32;240.90;;;40.30;;
51146;SDS011;37207;53.060;18.726;2022-10-31T00:24:03;218.50;;;40.70;;
51146;SDS011;37207;53.060;18.726;2022-10-31T00:26:33;214.60;;;42.00;;
51146;SDS011;37207;53.060;18.726;2022-10-31T00:29:00;313.50;;;43.40;;
51146;SDS011;37207;53.060;18.726;2022-10-31T00:31:27;242.00;;;41.00;;
51146;SDS011;37207;53.060;18.726;2022-10-31T00:33:55;321.40;;;42.90;;
51146;SDS011;37207;53.060;18.726;2022-10-31T00:36:21;400.80;;;45.70;;
51146;SDS011;37207;53.060;18.726;2022-10-31T00:38:48;328.10;;;47.60;;
51146;SDS011;37207;53.060;18.726;2022-10-31T00:41:15;419.30;;;41.70;;
51146;SDS011;37207;53.060;18.726;2022-10-31T00:43:43;404.80;;;45.50;;
51146;SDS011;37207;53.060;18.726;2022-10-31T00:46:10;387.20;;;45.20;;
51146;SDS011;37207;53.060;18.726;2022-10-31T00:48:38;407.50;;;45.30;;
51146;SDS011;37207;53.060;18.726;2022-10-31T00:51:04;480.20;;;44.70;;
51146;SDS011;37207;53.060;18.726;2022-10-31T00:53:32;471.50;;;45.50;;
51146;SDS011;37207;53.060;18.726;2022-10-31T00:56:02;425.40;;;45.60;;
51146;SDS011;37207;53.060;18.726;2022-10-31T00:58:29;391.20;;;44.70;;
51146;SDS011;37207;53.060;18.726;2022-10-31T01:00:56;442.40;;;47.40;;
51146;SDS011;37207;53.060;18.726;2022-10-31T01:03:24;284.10;;;46.50;;
51146;SDS011;37207;53.060;18.726;2022-10-31T01:05:59;356.60;;;43.30;;
51146;SDS011;37207;53.060;18.726;2022-10-31T01:08:26;264.90;;;41.00;;
51146;SDS011;37207;53.060;18.726;2022-10-31T01:13:33;307.50;;;42.00;;
51146;SDS011;37207;53.060;18.726;2022-10-31T01:16:01;237.90;;;40.20;;
51146;SDS011;37207;53.060;18.726;2022-10-31T01:18:30;184.30;;;40.10;;
51146;SDS011;37207;53.060;18.726;2022-10-31T01:21:07;267.80;;;38.80;;
51146;SDS011;37207;53.060;18.726;2022-10-31T01:23:39;221.60;;;40.70;;
51146;SDS011;37207;53.060;18.726;2022-10-31T01:26:07;245.60;;;41.60;;
51146;SDS011;37207;53.060;18.726;2022-10-31T01:28:37;225.30;;;40.40;;
51146;SDS011;37207;53.060;18.726;2022-10-31T01:31:10;224.60;;;41.10;;
51146;SDS011;37207;53.060;18.726;2022-10-31T01:33:40;201.10;;;39.30;;
51146;SDS011;37207;53.060;18.726;2022-10-31T01:38:45;156.10;;;30.20;;
51146;SDS011;37207;53.060;18.726;2022-10-31T01:41:21;180.20;;;37.70;;
51146;SDS011;37207;53.060;18.726;2022-10-31T01:43:51;181.20;;;37.90;;
51146;SDS011;37207;53.060;18.726;2022-10-31T01:46:22;182.50;;;36.10;;
51146;SDS011;37207;53.060;18.726;2022-10-31T01:48:56;169.40;;;36.40;;
